hwlogo.jpg (8581 bytes)
Home Your Weather Products Services Weather On Your Site Contact
HW Version Logo
Weather Info
Your Weather (Options)
Canadian Weather
International Weather
Enter your " Place, State", US Zip Code or ICAO:  
Forecast Information Radar Information
Repulse Bay, Nunavut, Canada  Lat: 66.53N, Lon: 86.25W
ICAO Used: CYUT
Current Conditions
Updated:
Sun & Moon Information:
Temp: N/A
Humidity: N/A
Wind Speed: N/A
Barometer: N/A
Dewpoint: N/A
Heat Index: N/A
Wind Chill: N/A
Civil Twilight: 6:59 AM CDT Moon Phase:
New Moon
New Moon
Sunrise: 7:54 AM CDT
Sunset: 5:02 PM CDT
Civil Twilight: 5:57 PM CDT
Forecast for Repulse Bay, NU, Canada:
(Forecast based on TAF for )
0138 PM CDT MON NOV 06 2006
  
AFTERNOONEVENING
LIGHT SNOWLIGHT SNOW
Light
Snow
Light
Snow
TAF based forecast:
Dated: 0138 PM CDT MON NOV 06 2006
Afternoon...Partly cloudy with winds from the north at 12 mphand gusts up to 23 mph. Then becoming overcast with light snow.
Evening...Becoming overcast with light snow.
Original Encoded TAF:
Dated: 0138 PM CDT MON NOV 06 2006
2006/11/06 18:38
CYUT 061838Z 061923 01010G20KT P6SM FEW005 FEW040 BECMG 2223 5SM -SN OVC020=


  Powered By HAMweather.
Copyright 2001 - 2003 HAMweather, LLC, all rights reserved.
US Forecasts are Public Domain and derived from the
National Weather Service - (IWIN) and the National Oceanic Atmospheric Administration (NOAA)
Canadian forecasts are obtained from and are copyright of Environment Canada.